Weather at Ceduna Airport

Public forecast

Using degrees Celsius for public forecast. Weather courtesy of forecast.io.

Current aviation weather report (METAR) for Ceduna Airport

Retrieved 2020/10/30 01:00 UTC (9 minutes ago):

YCDU 300100Z AUTO 19017KT 9999 // BKN051 17/07 Q1021

Closest aviation forecast (TAF) to Ceduna Airport

Forecast is more than 12 hours old.

Closest forecast is Woomera Airfield, 169.5 nm (313.9 km) ENE. Retrieved 2020-10-28 00:00 UTC (2 days ago):

TAF YPWR 272250Z 2800/2818 23007KT CAVOK FM281100 09006KT CAVOK FM281500 02008KT CAVOK